sensor_id;sensor_type;location;lat;lon;timestamp;P1;durP1;ratioP1;P2;durP2;ratioP2
18082;SDS011;9168;51.194;6.840;2023-12-20T00:01:57;13.45;;;5.05;;
18082;SDS011;9168;51.194;6.840;2023-12-20T00:05:09;9.82;;;4.18;;
18082;SDS011;9168;51.194;6.840;2023-12-20T00:08:16;10.63;;;4.25;;
18082;SDS011;9168;51.194;6.840;2023-12-20T00:11:08;11.30;;;3.97;;
18082;SDS011;9168;51.194;6.840;2023-12-20T00:17:27;9.23;;;4.05;;
18082;SDS011;9168;51.194;6.840;2023-12-20T00:23:36;9.43;;;4.35;;
18082;SDS011;9168;51.194;6.840;2023-12-20T00:26:13;16.77;;;4.90;;
18082;SDS011;9168;51.194;6.840;2023-12-20T00:29:31;16.15;;;5.32;;
18082;SDS011;9168;51.194;6.840;2023-12-20T00:32:42;14.00;;;5.47;;
18082;SDS011;9168;51.194;6.840;2023-12-20T00:45:18;12.20;;;5.03;;
18082;SDS011;9168;51.194;6.840;2023-12-20T00:51:37;19.70;;;6.00;;
18082;SDS011;9168;51.194;6.840;2023-12-20T00:54:24;11.52;;;5.47;;
18082;SDS011;9168;51.194;6.840;2023-12-20T00:57:26;18.15;;;6.20;;
18082;SDS011;9168;51.194;6.840;2023-12-20T01:00:31;18.23;;;7.18;;
18082;SDS011;9168;51.194;6.840;2023-12-20T01:03:44;14.98;;;6.65;;
18082;SDS011;9168;51.194;6.840;2023-12-20T01:06:11;18.48;;;7.15;;
18082;SDS011;9168;51.194;6.840;2023-12-20T01:08:47;21.08;;;8.40;;
18082;SDS011;9168;51.194;6.840;2023-12-20T01:11:17;26.40;;;8.30;;
18082;SDS011;9168;51.194;6.840;2023-12-20T01:14:05;17.85;;;8.38;;
18082;SDS011;9168;51.194;6.840;2023-12-20T01:16:43;19.42;;;9.00;;
18082;SDS011;9168;51.194;6.840;2023-12-20T01:19:16;28.55;;;10.30;;
18082;SDS011;9168;51.194;6.840;2023-12-20T01:22:04;20.88;;;9.55;;
18082;SDS011;9168;51.194;6.840;2023-12-20T01:31:13;24.50;;;10.65;;
18082;SDS011;9168;51.194;6.840;2023-12-20T01:37:01;27.42;;;13.52;;
18082;SDS011;9168;51.194;6.840;2023-12-20T01:39:54;34.90;;;14.27;;
18082;SDS011;9168;51.194;6.840;2023-12-20T01:42:59;30.65;;;14.95;;
18082;SDS011;9168;51.194;6.840;2023-12-20T01:45:35;36.03;;;14.98;;
18082;SDS011;9168;51.194;6.840;2023-12-20T01:48:22;32.67;;;15.65;;
18082;SDS011;9168;51.194;6.840;2023-12-20T01:50:51;34.47;;;14.93;;
18082;SDS011;9168;51.194;6.840;2023-12-20T01:53:22;28.60;;;14.57;;
18082;SDS011;9168;51.194;6.840;2023-12-20T01:55:57;30.77;;;14.98;;
18082;SDS011;9168;51.194;6.840;2023-12-20T01:58:31;35.63;;;15.55;;
18082;SDS011;9168;51.194;6.840;2023-12-20T02:01:20;34.67;;;15.02;;
18082;SDS011;9168;51.194;6.840;2023-12-20T02:03:56;33.10;;;14.73;;
18082;SDS011;9168;51.194;6.840;2023-12-20T02:06:29;32.63;;;14.38;;
18082;SDS011;9168;51.194;6.840;2023-12-20T02:09:10;33.95;;;14.20;;
18082;SDS011;9168;51.194;6.840;2023-12-20T02:11:40;30.95;;;11.80;;
18082;SDS011;9168;51.194;6.840;2023-12-20T02:14:48;27.83;;;12.18;;
18082;SDS011;9168;51.194;6.840;2023-12-20T02:17:15;30.27;;;11.32;;
18082;SDS011;9168;51.194;6.840;2023-12-20T02:19:51;35.60;;;10.68;;
18082;SDS011;9168;51.194;6.840;2023-12-20T02:22:35;26.40;;;11.07;;
18082;SDS011;9168;51.194;6.840;2023-12-20T02:25:16;29.17;;;10.77;;
18082;SDS011;9168;51.194;6.840;2023-12-20T02:27:48;31.35;;;10.68;;
18082;SDS011;9168;51.194;6.840;2023-12-20T02:30:26;24.88;;;10.90;;
18082;SDS011;9168;51.194;6.840;2023-12-20T02:33:07;28.42;;;11.00;;
18082;SDS011;9168;51.194;6.840;2023-12-20T02:35:41;37.17;;;11.35;;
18082;SDS011;9168;51.194;6.840;2023-12-20T02:38:27;27.17;;;10.40;;
18082;SDS011;9168;51.194;6.840;2023-12-20T02:41:03;35.97;;;11.10;;
18082;SDS011;9168;51.194;6.840;2023-12-20T02:43:47;29.30;;;9.73;;
18082;SDS011;9168;51.194;6.840;2023-12-20T02:46:18;35.45;;;10.07;;
18082;SDS011;9168;51.194;6.840;2023-12-20T02:49:05;32.13;;;9.00;;
18082;SDS011;9168;51.194;6.840;2023-12-20T02:51:35;29.40;;;8.68;;
18082;SDS011;9168;51.194;6.840;2023-12-20T02:54:12;30.60;;;8.68;;
18082;SDS011;9168;51.194;6.840;2023-12-20T02:56:41;29.30;;;7.38;;
18082;SDS011;9168;51.194;6.840;2023-12-20T02:59:17;28.42;;;6.90;;
18082;SDS011;9168;51.194;6.840;2023-12-20T03:01:53;23.33;;;5.63;;
18082;SDS011;9168;51.194;6.840;2023-12-20T03:05:01;28.13;;;5.65;;
18082;SDS011;9168;51.194;6.840;2023-12-20T03:18:18;22.25;;;4.50;;
18082;SDS011;9168;51.194;6.840;2023-12-20T03:20:53;26.63;;;4.47;;
18082;SDS011;9168;51.194;6.840;2023-12-20T03:23:22;27.23;;;5.28;;
18082;SDS011;9168;51.194;6.840;2023-12-20T03:26:43;24.90;;;4.65;;
18082;SDS011;9168;51.194;6.840;2023-12-20T03:29:23;29.95;;;4.57;;
18082;SDS011;9168;51.194;6.840;2023-12-20T03:31:56;37.00;;;4.78;;
18082;SDS011;9168;51.194;6.840;2023-12-20T03:34:58;31.38;;;5.53;;
18082;SDS011;9168;51.194;6.840;2023-12-20T03:37:52;24.50;;;4.60;;
18082;SDS011;9168;51.194;6.840;2023-12-20T03:40:45;32.25;;;4.97;;
18082;SDS011;9168;51.194;6.840;2023-12-20T03:43:21;28.00;;;5.05;;
18082;SDS011;9168;51.194;6.840;2023-12-20T03:45:58;29.42;;;4.60;;
18082;SDS011;9168;51.194;6.840;2023-12-20T03:48:33;24.70;;;4.50;;
18082;SDS011;9168;51.194;6.840;2023-12-20T03:51:02;33.75;;;4.90;;
18082;SDS011;9168;51.194;6.840;2023-12-20T03:53:37;21.75;;;4.65;;
18082;SDS011;9168;51.194;6.840;2023-12-20T03:56:16;28.75;;;5.43;;
18082;SDS011;9168;51.194;6.840;2023-12-20T03:58:48;28.13;;;4.47;;
18082;SDS011;9168;51.194;6.840;2023-12-20T04:01:36;32.05;;;4.18;;
18082;SDS011;9168;51.194;6.840;2023-12-20T04:04:26;29.75;;;5.07;;
18082;SDS011;9168;51.194;6.840;2023-12-20T04:07:09;26.38;;;4.47;;
18082;SDS011;9168;51.194;6.840;2023-12-20T04:12:50;27.17;;;4.38;;
18082;SDS011;9168;51.194;6.840;2023-12-20T04:15:20;24.92;;;4.32;;
18082;SDS011;9168;51.194;6.840;2023-12-20T04:18:03;28.10;;;5.00;;
18082;SDS011;9168;51.194;6.840;2023-12-20T04:20:35;27.77;;;5.10;;
18082;SDS011;9168;51.194;6.840;2023-12-20T04:26:09;25.45;;;4.70;;
18082;SDS011;9168;51.194;6.840;2023-12-20T04:28:42;21.92;;;4.55;;
18082;SDS011;9168;51.194;6.840;2023-12-20T04:31:55;20.15;;;4.10;;
18082;SDS011;9168;51.194;6.840;2023-12-20T04:38:21;26.95;;;4.82;;
18082;SDS011;9168;51.194;6.840;2023-12-20T04:43:58;32.45;;;6.43;;
18082;SDS011;9168;51.194;6.840;2023-12-20T04:53:09;34.90;;;6.32;;
18082;SDS011;9168;51.194;6.840;2023-12-20T04:55:51;25.20;;;5.15;;
18082;SDS011;9168;51.194;6.840;2023-12-20T04:58:48;27.70;;;5.78;;
18082;SDS011;9168;51.194;6.840;2023-12-20T05:01:24;24.42;;;5.97;;
18082;SDS011;9168;51.194;6.840;2023-12-20T05:07:03;31.17;;;5.15;;
18082;SDS011;9168;51.194;6.840;2023-12-20T05:09:38;28.30;;;5.05;;
18082;SDS011;9168;51.194;6.840;2023-12-20T05:12:39;28.55;;;5.65;;
18082;SDS011;9168;51.194;6.840;2023-12-20T05:25:15;33.33;;;6.07;;
18082;SDS011;9168;51.194;6.840;2023-12-20T05:28:13;29.27;;;6.70;;
18082;SDS011;9168;51.194;6.840;2023-12-20T05:30:53;33.10;;;5.30;;
18082;SDS011;9168;51.194;6.840;2023-12-20T05:40:29;34.75;;;5.50;;
18082;SDS011;9168;51.194;6.840;2023-12-20T05:43:43;35.42;;;6.57;;
18082;SDS011;9168;51.194;6.840;2023-12-20T05:46:27;31.85;;;6.47;;
18082;SDS011;9168;51.194;6.840;2023-12-20T05:49:11;31.85;;;5.93;;
18082;SDS011;9168;51.194;6.840;2023-12-20T05:52:08;30.92;;;6.55;;
18082;SDS011;9168;51.194;6.840;2023-12-20T05:54:53;32.85;;;6.32;;
18082;SDS011;9168;51.194;6.840;2023-12-20T05:58:03;27.27;;;5.90;;
18082;SDS011;9168;51.194;6.840;2023-12-20T06:01:12;27.52;;;5.00;;
18082;SDS011;9168;51.194;6.840;2023-12-20T06:03:52;34.30;;;5.60;;
18082;SDS011;9168;51.194;6.840;2023-12-20T06:06:44;27.15;;;5.30;;
18082;SDS011;9168;51.194;6.840;2023-12-20T06:09:52;31.02;;;6.00;;
18082;SDS011;9168;51.194;6.840;2023-12-20T06:13:48;27.85;;;5.72;;
18082;SDS011;9168;51.194;6.840;2023-12-20T06:15:47;30.23;;;5.97;;
18082;SDS011;9168;51.194;6.840;2023-12-20T06:18:34;35.05;;;5.70;;
18082;SDS011;9168;51.194;6.840;2023-12-20T06:21:06;32.38;;;5.85;;
18082;SDS011;9168;51.194;6.840;2023-12-20T06:23:40;27.48;;;5.80;;
18082;SDS011;9168;51.194;6.840;2023-12-20T06:26:14;33.30;;;6.30;;
18082;SDS011;9168;51.194;6.840;2023-12-20T06:28:41;30.95;;;7.32;;
18082;SDS011;9168;51.194;6.840;2023-12-20T06:34:00;28.60;;;5.25;;
18082;SDS011;9168;51.194;6.840;2023-12-20T06:48:17;28.80;;;6.40;;
18082;SDS011;9168;51.194;6.840;2023-12-20T06:54:45;34.15;;;6.55;;
18082;SDS011;9168;51.194;6.840;2023-12-20T07:00:25;34.08;;;6.65;;
18082;SDS011;9168;51.194;6.840;2023-12-20T07:05:44;33.50;;;5.78;;
18082;SDS011;9168;51.194;6.840;2023-12-20T07:15:17;32.00;;;5.82;;
18082;SDS011;9168;51.194;6.840;2023-12-20T07:17:51;32.67;;;5.95;;
18082;SDS011;9168;51.194;6.840;2023-12-20T07:20:22;31.80;;;6.05;;
18082;SDS011;9168;51.194;6.840;2023-12-20T07:32:46;25.80;;;5.93;;
18082;SDS011;9168;51.194;6.840;2023-12-20T07:35:31;29.20;;;5.78;;
18082;SDS011;9168;51.194;6.840;2023-12-20T07:38:00;45.53;;;6.00;;
18082;SDS011;9168;51.194;6.840;2023-12-20T07:40:44;31.67;;;5.70;;
18082;SDS011;9168;51.194;6.840;2023-12-20T07:48:46;30.38;;;6.00;;
18082;SDS011;9168;51.194;6.840;2023-12-20T07:51:22;28.88;;;5.85;;
18082;SDS011;9168;51.194;6.840;2023-12-20T07:57:03;37.70;;;6.05;;
18082;SDS011;9168;51.194;6.840;2023-12-20T07:59:44;35.60;;;5.70;;
18082;SDS011;9168;51.194;6.840;2023-12-20T08:02:20;40.20;;;6.88;;
18082;SDS011;9168;51.194;6.840;2023-12-20T08:05:27;42.25;;;6.85;;
18082;SDS011;9168;51.194;6.840;2023-12-20T08:14:58;35.42;;;6.32;;
18082;SDS011;9168;51.194;6.840;2023-12-20T08:17:28;34.55;;;5.60;;
18082;SDS011;9168;51.194;6.840;2023-12-20T08:20:20;19.42;;;4.57;;
18082;SDS011;9168;51.194;6.840;2023-12-20T08:23:06;36.78;;;6.43;;
18082;SDS011;9168;51.194;6.840;2023-12-20T08:25:45;30.40;;;5.85;;
18082;SDS011;9168;51.194;6.840;2023-12-20T08:28:14;29.60;;;5.55;;
18082;SDS011;9168;51.194;6.840;2023-12-20T08:30:41;26.42;;;5.90;;
18082;SDS011;9168;51.194;6.840;2023-12-20T08:33:08;36.28;;;6.25;;
18082;SDS011;9168;51.194;6.840;2023-12-20T08:35:37;36.88;;;6.55;;
18082;SDS011;9168;51.194;6.840;2023-12-20T08:38:05;29.88;;;5.55;;
18082;SDS011;9168;51.194;6.840;2023-12-20T08:40:32;29.00;;;6.15;;
18082;SDS011;9168;51.194;6.840;2023-12-20T08:42:59;27.88;;;6.13;;
18082;SDS011;9168;51.194;6.840;2023-12-20T08:45:27;39.55;;;6.28;;
18082;SDS011;9168;51.194;6.840;2023-12-20T08:51:18;35.28;;;5.55;;
18082;SDS011;9168;51.194;6.840;2023-12-20T08:53:49;27.67;;;5.22;;
18082;SDS011;9168;51.194;6.840;2023-12-20T08:56:18;27.13;;;6.38;;
18082;SDS011;9168;51.194;6.840;2023-12-20T08:58:47;33.10;;;5.45;;
18082;SDS011;9168;51.194;6.840;2023-12-20T09:01:15;32.33;;;6.03;;
18082;SDS011;9168;51.194;6.840;2023-12-20T09:03:42;22.05;;;4.65;;
18082;SDS011;9168;51.194;6.840;2023-12-20T09:06:09;29.27;;;5.00;;
18082;SDS011;9168;51.194;6.840;2023-12-20T09:08:36;28.05;;;4.45;;
18082;SDS011;9168;51.194;6.840;2023-12-20T09:11:03;32.08;;;5.80;;
18082;SDS011;9168;51.194;6.840;2023-12-20T09:13:30;31.50;;;6.35;;
18082;SDS011;9168;51.194;6.840;2023-12-20T09:15:57;25.23;;;4.50;;
18082;SDS011;9168;51.194;6.840;2023-12-20T09:18:25;30.17;;;4.78;;
18082;SDS011;9168;51.194;6.840;2023-12-20T09:20:52;30.30;;;5.05;;
18082;SDS011;9168;51.194;6.840;2023-12-20T09:23:19;30.13;;;4.97;;
18082;SDS011;9168;51.194;6.840;2023-12-20T09:25:46;25.90;;;4.80;;
18082;SDS011;9168;51.194;6.840;2023-12-20T09:28:13;28.05;;;4.57;;
18082;SDS011;9168;51.194;6.840;2023-12-20T09:30:40;23.35;;;5.20;;
18082;SDS011;9168;51.194;6.840;2023-12-20T09:33:06;24.27;;;4.63;;
18082;SDS011;9168;51.194;6.840;2023-12-20T09:35:35;32.33;;;5.47;;
18082;SDS011;9168;51.194;6.840;2023-12-20T09:38:02;19.15;;;4.28;;
18082;SDS011;9168;51.194;6.840;2023-12-20T09:40:29;28.90;;;4.90;;
18082;SDS011;9168;51.194;6.840;2023-12-20T09:43:01;29.38;;;5.38;;
18082;SDS011;9168;51.194;6.840;2023-12-20T09:45:30;27.98;;;4.43;;
18082;SDS011;9168;51.194;6.840;2023-12-20T09:47:58;24.38;;;4.10;;
18082;SDS011;9168;51.194;6.840;2023-12-20T09:50:25;25.55;;;3.78;;
18082;SDS011;9168;51.194;6.840;2023-12-20T09:52:57;36.08;;;5.30;;
18082;SDS011;9168;51.194;6.840;2023-12-20T09:55:25;40.38;;;4.75;;
18082;SDS011;9168;51.194;6.840;2023-12-20T09:57:54;26.02;;;4.75;;
18082;SDS011;9168;51.194;6.840;2023-12-20T10:00:21;20.35;;;5.28;;
18082;SDS011;9168;51.194;6.840;2023-12-20T10:02:50;21.63;;;4.20;;
18082;SDS011;9168;51.194;6.840;2023-12-20T10:05:19;23.33;;;4.22;;
18082;SDS011;9168;51.194;6.840;2023-12-20T10:07:53;22.55;;;4.40;;
18082;SDS011;9168;51.194;6.840;2023-12-20T10:10:21;33.67;;;5.22;;
18082;SDS011;9168;51.194;6.840;2023-12-20T10:13:00;27.48;;;4.43;;
18082;SDS011;9168;51.194;6.840;2023-12-20T10:15:28;24.10;;;4.57;;
18082;SDS011;9168;51.194;6.840;2023-12-20T10:17:56;25.52;;;4.20;;
18082;SDS011;9168;51.194;6.840;2023-12-20T10:20:23;22.60;;;4.05;;
18082;SDS011;9168;51.194;6.840;2023-12-20T10:22:50;34.70;;;4.65;;
18082;SDS011;9168;51.194;6.840;2023-12-20T10:25:18;28.75;;;4.47;;
18082;SDS011;9168;51.194;6.840;2023-12-20T10:27:47;27.52;;;4.85;;
18082;SDS011;9168;51.194;6.840;2023-12-20T10:30:14;26.38;;;4.45;;
18082;SDS011;9168;51.194;6.840;2023-12-20T10:32:41;29.00;;;4.55;;
18082;SDS011;9168;51.194;6.840;2023-12-20T10:35:08;18.27;;;3.78;;
18082;SDS011;9168;51.194;6.840;2023-12-20T10:37:36;28.58;;;4.07;;
18082;SDS011;9168;51.194;6.840;2023-12-20T10:40:03;37.72;;;4.75;;
18082;SDS011;9168;51.194;6.840;2023-12-20T10:42:33;24.73;;;4.03;;
18082;SDS011;9168;51.194;6.840;2023-12-20T10:45:02;24.48;;;4.20;;
18082;SDS011;9168;51.194;6.840;2023-12-20T10:47:30;27.13;;;3.97;;
18082;SDS011;9168;51.194;6.840;2023-12-20T10:49:59;23.02;;;4.00;;
18082;SDS011;9168;51.194;6.840;2023-12-20T10:52:26;25.88;;;4.22;;
18082;SDS011;9168;51.194;6.840;2023-12-20T10:54:55;28.15;;;4.60;;
18082;SDS011;9168;51.194;6.840;2023-12-20T10:57:22;21.17;;;3.67;;
18082;SDS011;9168;51.194;6.840;2023-12-20T10:59:54;23.02;;;3.67;;
18082;SDS011;9168;51.194;6.840;2023-12-20T11:02:24;25.90;;;4.63;;
18082;SDS011;9168;51.194;6.840;2023-12-20T11:04:53;21.17;;;4.20;;
18082;SDS011;9168;51.194;6.840;2023-12-20T11:07:28;22.88;;;3.67;;
18082;SDS011;9168;51.194;6.840;2023-12-20T11:10:00;24.27;;;4.80;;
18082;SDS011;9168;51.194;6.840;2023-12-20T11:12:37;21.33;;;3.80;;
18082;SDS011;9168;51.194;6.840;2023-12-20T11:15:09;22.58;;;4.32;;
18082;SDS011;9168;51.194;6.840;2023-12-20T11:17:38;27.42;;;4.30;;
18082;SDS011;9168;51.194;6.840;2023-12-20T11:20:06;21.05;;;3.70;;
18082;SDS011;9168;51.194;6.840;2023-12-20T11:22:37;35.40;;;4.63;;
18082;SDS011;9168;51.194;6.840;2023-12-20T11:25:07;21.52;;;3.55;;
18082;SDS011;9168;51.194;6.840;2023-12-20T11:27:35;26.75;;;4.00;;
18082;SDS011;9168;51.194;6.840;2023-12-20T11:30:03;25.20;;;4.10;;
18082;SDS011;9168;51.194;6.840;2023-12-20T11:32:35;27.00;;;4.05;;
18082;SDS011;9168;51.194;6.840;2023-12-20T11:35:16;32.22;;;4.43;;
18082;SDS011;9168;51.194;6.840;2023-12-20T11:37:44;25.48;;;4.35;;
18082;SDS011;9168;51.194;6.840;2023-12-20T11:40:13;23.08;;;3.38;;
18082;SDS011;9168;51.194;6.840;2023-12-20T11:42:42;25.63;;;3.50;;
18082;SDS011;9168;51.194;6.840;2023-12-20T11:45:10;17.55;;;3.58;;
18082;SDS011;9168;51.194;6.840;2023-12-20T11:47:41;23.40;;;4.00;;
18082;SDS011;9168;51.194;6.840;2023-12-20T11:50:09;28.83;;;4.40;;
18082;SDS011;9168;51.194;6.840;2023-12-20T11:52:36;27.00;;;3.75;;
18082;SDS011;9168;51.194;6.840;2023-12-20T11:55:03;20.55;;;3.92;;
18082;SDS011;9168;51.194;6.840;2023-12-20T11:57:31;22.77;;;3.70;;
18082;SDS011;9168;51.194;6.840;2023-12-20T11:59:58;28.70;;;4.43;;
18082;SDS011;9168;51.194;6.840;2023-12-20T12:02:25;20.77;;;4.07;;
18082;SDS011;9168;51.194;6.840;2023-12-20T12:04:54;32.58;;;4.72;;
18082;SDS011;9168;51.194;6.840;2023-12-20T12:07:21;26.20;;;4.45;;
18082;SDS011;9168;51.194;6.840;2023-12-20T12:09:48;24.40;;;3.75;;
18082;SDS011;9168;51.194;6.840;2023-12-20T12:12:15;26.30;;;4.18;;
18082;SDS011;9168;51.194;6.840;2023-12-20T12:14:43;29.17;;;3.75;;
18082;SDS011;9168;51.194;6.840;2023-12-20T12:17:11;24.77;;;3.72;;
18082;SDS011;9168;51.194;6.840;2023-12-20T12:19:38;20.55;;;3.72;;
18082;SDS011;9168;51.194;6.840;2023-12-20T12:22:06;32.67;;;5.15;;
18082;SDS011;9168;51.194;6.840;2023-12-20T12:24:38;19.73;;;3.75;;
18082;SDS011;9168;51.194;6.840;2023-12-20T12:27:05;27.63;;;3.83;;
18082;SDS011;9168;51.194;6.840;2023-12-20T12:29:32;26.40;;;4.03;;
18082;SDS011;9168;51.194;6.840;2023-12-20T12:31:59;25.60;;;3.95;;
18082;SDS011;9168;51.194;6.840;2023-12-20T12:34:27;16.75;;;3.78;;
18082;SDS011;9168;51.194;6.840;2023-12-20T12:36:54;19.25;;;3.38;;
18082;SDS011;9168;51.194;6.840;2023-12-20T12:39:25;29.42;;;4.47;;
18082;SDS011;9168;51.194;6.840;2023-12-20T12:42:04;22.77;;;4.15;;
18082;SDS011;9168;51.194;6.840;2023-12-20T12:44:31;33.47;;;4.38;;
18082;SDS011;9168;51.194;6.840;2023-12-20T12:47:03;34.92;;;4.50;;
18082;SDS011;9168;51.194;6.840;2023-12-20T12:49:40;25.40;;;4.55;;
18082;SDS011;9168;51.194;6.840;2023-12-20T12:52:07;27.63;;;4.13;;
18082;SDS011;9168;51.194;6.840;2023-12-20T12:54:35;27.48;;;4.50;;
18082;SDS011;9168;51.194;6.840;2023-12-20T12:57:02;26.58;;;4.78;;
18082;SDS011;9168;51.194;6.840;2023-12-20T12:59:29;26.83;;;5.40;;
18082;SDS011;9168;51.194;6.840;2023-12-20T13:01:56;24.17;;;4.18;;
18082;SDS011;9168;51.194;6.840;2023-12-20T13:04:23;21.73;;;4.40;;
18082;SDS011;9168;51.194;6.840;2023-12-20T13:06:50;31.85;;;5.18;;
18082;SDS011;9168;51.194;6.840;2023-12-20T13:09:17;16.92;;;4.53;;
18082;SDS011;9168;51.194;6.840;2023-12-20T13:11:46;28.92;;;5.05;;
18082;SDS011;9168;51.194;6.840;2023-12-20T13:14:12;31.27;;;5.40;;
18082;SDS011;9168;51.194;6.840;2023-12-20T13:16:40;29.95;;;5.75;;
18082;SDS011;9168;51.194;6.840;2023-12-20T13:19:07;25.90;;;4.70;;
18082;SDS011;9168;51.194;6.840;2023-12-20T13:21:35;31.73;;;5.15;;
18082;SDS011;9168;51.194;6.840;2023-12-20T13:24:02;26.60;;;4.35;;
18082;SDS011;9168;51.194;6.840;2023-12-20T13:26:29;31.77;;;5.57;;
18082;SDS011;9168;51.194;6.840;2023-12-20T13:28:57;21.83;;;5.05;;
18082;SDS011;9168;51.194;6.840;2023-12-20T13:31:24;23.13;;;4.82;;
18082;SDS011;9168;51.194;6.840;2023-12-20T13:33:51;27.98;;;5.43;;
18082;SDS011;9168;51.194;6.840;2023-12-20T13:36:18;30.33;;;5.32;;
18082;SDS011;9168;51.194;6.840;2023-12-20T13:38:45;23.75;;;5.32;;
18082;SDS011;9168;51.194;6.840;2023-12-20T13:41:12;25.75;;;4.32;;
18082;SDS011;9168;51.194;6.840;2023-12-20T13:43:39;23.00;;;5.40;;
18082;SDS011;9168;51.194;6.840;2023-12-20T13:46:07;22.90;;;5.40;;
18082;SDS011;9168;51.194;6.840;2023-12-20T13:48:34;23.50;;;5.03;;
18082;SDS011;9168;51.194;6.840;2023-12-20T13:51:01;22.92;;;5.63;;
18082;SDS011;9168;51.194;6.840;2023-12-20T13:53:28;24.30;;;5.05;;
18082;SDS011;9168;51.194;6.840;2023-12-20T13:55:55;25.65;;;4.75;;
18082;SDS011;9168;51.194;6.840;2023-12-20T13:58:22;25.70;;;5.10;;
18082;SDS011;9168;51.194;6.840;2023-12-20T14:00:49;27.42;;;5.65;;
18082;SDS011;9168;51.194;6.840;2023-12-20T14:03:18;21.63;;;5.82;;
18082;SDS011;9168;51.194;6.840;2023-12-20T14:05:44;26.77;;;6.43;;
18082;SDS011;9168;51.194;6.840;2023-12-20T14:08:11;28.95;;;6.18;;
18082;SDS011;9168;51.194;6.840;2023-12-20T14:10:38;24.63;;;5.85;;
18082;SDS011;9168;51.194;6.840;2023-12-20T14:13:05;26.30;;;5.85;;
18082;SDS011;9168;51.194;6.840;2023-12-20T14:15:32;31.00;;;5.72;;
18082;SDS011;9168;51.194;6.840;2023-12-20T14:18:02;22.45;;;4.97;;
18082;SDS011;9168;51.194;6.840;2023-12-20T14:20:32;36.92;;;5.13;;
18082;SDS011;9168;51.194;6.840;2023-12-20T14:23:00;27.90;;;4.82;;
18082;SDS011;9168;51.194;6.840;2023-12-20T14:25:27;21.35;;;4.32;;
18082;SDS011;9168;51.194;6.840;2023-12-20T14:27:54;21.30;;;4.88;;
18082;SDS011;9168;51.194;6.840;2023-12-20T14:30:21;25.23;;;3.90;;
18082;SDS011;9168;51.194;6.840;2023-12-20T14:32:49;17.75;;;4.45;;
18082;SDS011;9168;51.194;6.840;2023-12-20T14:35:16;15.70;;;4.50;;
18082;SDS011;9168;51.194;6.840;2023-12-20T14:37:46;21.00;;;4.82;;
18082;SDS011;9168;51.194;6.840;2023-12-20T14:40:13;25.95;;;4.95;;
18082;SDS011;9168;51.194;6.840;2023-12-20T14:42:41;22.15;;;4.47;;
18082;SDS011;9168;51.194;6.840;2023-12-20T14:45:08;23.70;;;5.07;;
18082;SDS011;9168;51.194;6.840;2023-12-20T14:47:36;27.15;;;4.68;;
18082;SDS011;9168;51.194;6.840;2023-12-20T14:50:04;25.13;;;4.53;;
18082;SDS011;9168;51.194;6.840;2023-12-20T14:52:32;23.42;;;4.50;;
18082;SDS011;9168;51.194;6.840;2023-12-20T14:55:01;18.70;;;4.82;;
18082;SDS011;9168;51.194;6.840;2023-12-20T14:57:28;23.10;;;5.03;;
18082;SDS011;9168;51.194;6.840;2023-12-20T14:59:55;23.15;;;4.82;;
18082;SDS011;9168;51.194;6.840;2023-12-20T15:02:22;18.98;;;4.15;;
18082;SDS011;9168;51.194;6.840;2023-12-20T15:04:49;20.27;;;4.15;;
18082;SDS011;9168;51.194;6.840;2023-12-20T15:07:17;23.08;;;4.57;;
18082;SDS011;9168;51.194;6.840;2023-12-20T15:09:44;24.27;;;4.80;;
18082;SDS011;9168;51.194;6.840;2023-12-20T15:12:14;19.30;;;5.25;;
18082;SDS011;9168;51.194;6.840;2023-12-20T15:14:41;15.60;;;4.43;;
18082;SDS011;9168;51.194;6.840;2023-12-20T15:17:07;22.23;;;4.85;;
18082;SDS011;9168;51.194;6.840;2023-12-20T15:19:35;20.40;;;4.90;;
18082;SDS011;9168;51.194;6.840;2023-12-20T15:22:02;22.02;;;5.32;;
18082;SDS011;9168;51.194;6.840;2023-12-20T15:24:29;24.27;;;4.57;;
18082;SDS011;9168;51.194;6.840;2023-12-20T15:27:03;26.25;;;4.47;;
18082;SDS011;9168;51.194;6.840;2023-12-20T15:29:31;25.42;;;4.75;;
18082;SDS011;9168;51.194;6.840;2023-12-20T15:31:59;27.20;;;4.75;;
18082;SDS011;9168;51.194;6.840;2023-12-20T15:34:25;27.83;;;5.28;;
18082;SDS011;9168;51.194;6.840;2023-12-20T15:36:53;23.85;;;4.70;;
18082;SDS011;9168;51.194;6.840;2023-12-20T15:39:20;23.08;;;4.95;;
18082;SDS011;9168;51.194;6.840;2023-12-20T15:41:47;23.27;;;4.60;;
18082;SDS011;9168;51.194;6.840;2023-12-20T15:44:14;27.92;;;4.97;;
18082;SDS011;9168;51.194;6.840;2023-12-20T15:46:42;18.45;;;4.60;;
18082;SDS011;9168;51.194;6.840;2023-12-20T15:49:09;20.05;;;5.03;;
18082;SDS011;9168;51.194;6.840;2023-12-20T15:51:37;31.00;;;6.60;;
18082;SDS011;9168;51.194;6.840;2023-12-20T15:54:04;29.77;;;5.22;;
18082;SDS011;9168;51.194;6.840;2023-12-20T15:56:33;30.02;;;5.63;;
18082;SDS011;9168;51.194;6.840;2023-12-20T15:59:00;23.20;;;4.90;;
18082;SDS011;9168;51.194;6.840;2023-12-20T16:01:27;25.90;;;5.22;;
18082;SDS011;9168;51.194;6.840;2023-12-20T16:03:57;32.47;;;5.53;;
18082;SDS011;9168;51.194;6.840;2023-12-20T16:06:23;24.67;;;5.35;;
18082;SDS011;9168;51.194;6.840;2023-12-20T16:08:50;26.83;;;5.43;;
18082;SDS011;9168;51.194;6.840;2023-12-20T16:11:17;27.40;;;5.30;;
18082;SDS011;9168;51.194;6.840;2023-12-20T16:13:45;26.85;;;5.18;;
18082;SDS011;9168;51.194;6.840;2023-12-20T16:16:12;29.42;;;5.45;;
18082;SDS011;9168;51.194;6.840;2023-12-20T16:18:38;27.90;;;6.00;;
18082;SDS011;9168;51.194;6.840;2023-12-20T16:21:07;25.92;;;5.05;;
18082;SDS011;9168;51.194;6.840;2023-12-20T16:23:33;23.67;;;5.20;;
18082;SDS011;9168;51.194;6.840;2023-12-20T16:26:00;25.60;;;5.20;;
18082;SDS011;9168;51.194;6.840;2023-12-20T16:28:28;25.60;;;5.68;;
18082;SDS011;9168;51.194;6.840;2023-12-20T16:30:55;26.58;;;5.47;;
18082;SDS011;9168;51.194;6.840;2023-12-20T16:33:21;25.67;;;6.70;;
18082;SDS011;9168;51.194;6.840;2023-12-20T16:35:48;28.35;;;6.35;;
18082;SDS011;9168;51.194;6.840;2023-12-20T16:38:17;30.85;;;5.93;;
18082;SDS011;9168;51.194;6.840;2023-12-20T16:40:43;20.05;;;6.15;;
18082;SDS011;9168;51.194;6.840;2023-12-20T16:43:10;27.50;;;6.05;;
18082;SDS011;9168;51.194;6.840;2023-12-20T16:45:37;27.50;;;5.82;;
18082;SDS011;9168;51.194;6.840;2023-12-20T16:48:05;19.90;;;6.10;;
18082;SDS011;9168;51.194;6.840;2023-12-20T16:50:32;23.55;;;6.78;;
18082;SDS011;9168;51.194;6.840;2023-12-20T16:52:59;24.73;;;6.15;;
18082;SDS011;9168;51.194;6.840;2023-12-20T16:55:27;33.80;;;6.07;;
18082;SDS011;9168;51.194;6.840;2023-12-20T16:57:55;21.60;;;6.18;;
18082;SDS011;9168;51.194;6.840;2023-12-20T17:00:22;21.55;;;6.38;;
18082;SDS011;9168;51.194;6.840;2023-12-20T17:02:51;20.30;;;5.88;;
18082;SDS011;9168;51.194;6.840;2023-12-20T17:05:18;24.30;;;6.03;;
18082;SDS011;9168;51.194;6.840;2023-12-20T17:14:43;19.73;;;5.28;;
18082;SDS011;9168;51.194;6.840;2023-12-20T17:17:32;21.73;;;6.80;;
18082;SDS011;9168;51.194;6.840;2023-12-20T17:20:05;24.63;;;6.25;;
18082;SDS011;9168;51.194;6.840;2023-12-20T17:22:54;22.60;;;5.97;;
18082;SDS011;9168;51.194;6.840;2023-12-20T17:25:41;32.85;;;5.72;;
18082;SDS011;9168;51.194;6.840;2023-12-20T17:50:54;25.98;;;7.07;;
18082;SDS011;9168;51.194;6.840;2023-12-20T17:56:56;25.55;;;6.70;;
18082;SDS011;9168;51.194;6.840;2023-12-20T18:01:00;22.13;;;6.65;;
18082;SDS011;9168;51.194;6.840;2023-12-20T18:05:06;20.00;;;5.50;;
18082;SDS011;9168;51.194;6.840;2023-12-20T18:06:27;21.98;;;6.28;;
18082;SDS011;9168;51.194;6.840;2023-12-20T18:09:12;20.05;;;6.03;;
18082;SDS011;9168;51.194;6.840;2023-12-20T18:33:36;25.92;;;6.07;;
18082;SDS011;9168;51.194;6.840;2023-12-20T18:36:16;25.42;;;5.95;;
18082;SDS011;9168;51.194;6.840;2023-12-20T18:41:51;23.67;;;5.28;;
18082;SDS011;9168;51.194;6.840;2023-12-20T18:44:18;25.52;;;4.93;;
18082;SDS011;9168;51.194;6.840;2023-12-20T18:48:55;25.02;;;5.57;;
18082;SDS011;9168;51.194;6.840;2023-12-20T18:50:13;28.40;;;6.28;;